sensor_id;sensor_type;location;lat;lon;timestamp;temperature;humidity
16200;DHT22;8207;52.494;4.654;2023-05-07T00:02:07;15.10;99.90
16200;DHT22;8207;52.494;4.654;2023-05-07T00:04:34;15.10;99.90
16200;DHT22;8207;52.494;4.654;2023-05-07T00:07:03;15.10;99.90
16200;DHT22;8207;52.494;4.654;2023-05-07T00:09:30;15.10;99.90
16200;DHT22;8207;52.494;4.654;2023-05-07T00:11:56;15.10;99.90
16200;DHT22;8207;52.494;4.654;2023-05-07T00:14:23;15.00;99.90
16200;DHT22;8207;52.494;4.654;2023-05-07T00:16:52;15.00;99.90
16200;DHT22;8207;52.494;4.654;2023-05-07T00:19:18;15.00;99.90
16200;DHT22;8207;52.494;4.654;2023-05-07T00:21:45;15.10;99.90
16200;DHT22;8207;52.494;4.654;2023-05-07T00:24:12;15.00;99.90
16200;DHT22;8207;52.494;4.654;2023-05-07T00:26:39;15.10;99.90
16200;DHT22;8207;52.494;4.654;2023-05-07T00:29:06;15.00;99.90
16200;DHT22;8207;52.494;4.654;2023-05-07T00:31:33;15.00;99.90
16200;DHT22;8207;52.494;4.654;2023-05-07T00:34:02;15.00;99.90
16200;DHT22;8207;52.494;4.654;2023-05-07T00:36:29;15.00;99.90
16200;DHT22;8207;52.494;4.654;2023-05-07T00:38:58;15.00;99.90
16200;DHT22;8207;52.494;4.654;2023-05-07T00:41:25;15.00;99.90
16200;DHT22;8207;52.494;4.654;2023-05-07T00:43:52;15.00;99.90
16200;DHT22;8207;52.494;4.654;2023-05-07T00:46:20;14.90;99.90
16200;DHT22;8207;52.494;4.654;2023-05-07T00:48:48;14.90;99.90
16200;DHT22;8207;52.494;4.654;2023-05-07T00:51:17;14.90;99.90
16200;DHT22;8207;52.494;4.654;2023-05-07T00:53:45;14.90;99.90
16200;DHT22;8207;52.494;4.654;2023-05-07T00:56:12;14.90;99.90
16200;DHT22;8207;52.494;4.654;2023-05-07T00:58:40;14.90;99.90
16200;DHT22;8207;52.494;4.654;2023-05-07T01:01:07;14.90;99.90
16200;DHT22;8207;52.494;4.654;2023-05-07T01:03:34;14.90;99.90
16200;DHT22;8207;52.494;4.654;2023-05-07T01:06:01;14.90;99.90
16200;DHT22;8207;52.494;4.654;2023-05-07T01:08:31;14.80;99.90
16200;DHT22;8207;52.494;4.654;2023-05-07T01:11:00;14.80;99.90
16200;DHT22;8207;52.494;4.654;2023-05-07T01:13:27;14.80;99.90
16200;DHT22;8207;52.494;4.654;2023-05-07T01:15:55;14.80;99.90
16200;DHT22;8207;52.494;4.654;2023-05-07T01:18:22;14.80;99.90
16200;DHT22;8207;52.494;4.654;2023-05-07T01:20:51;14.80;99.90
16200;DHT22;8207;52.494;4.654;2023-05-07T01:23:20;14.80;99.90
16200;DHT22;8207;52.494;4.654;2023-05-07T01:25:51;14.80;99.90
16200;DHT22;8207;52.494;4.654;2023-05-07T01:28:19;14.80;99.90
16200;DHT22;8207;52.494;4.654;2023-05-07T01:30:49;14.80;99.90
16200;DHT22;8207;52.494;4.654;2023-05-07T01:33:19;14.80;99.90
16200;DHT22;8207;52.494;4.654;2023-05-07T01:35:48;14.80;99.90
16200;DHT22;8207;52.494;4.654;2023-05-07T01:38:17;14.80;99.90
16200;DHT22;8207;52.494;4.654;2023-05-07T01:40:46;14.80;99.90
16200;DHT22;8207;52.494;4.654;2023-05-07T01:43:13;14.80;99.90
16200;DHT22;8207;52.494;4.654;2023-05-07T01:45:41;14.80;99.90
16200;DHT22;8207;52.494;4.654;2023-05-07T01:48:10;14.80;99.90
16200;DHT22;8207;52.494;4.654;2023-05-07T01:50:38;14.80;99.90
16200;DHT22;8207;52.494;4.654;2023-05-07T01:53:05;14.80;99.90
16200;DHT22;8207;52.494;4.654;2023-05-07T01:55:33;14.80;99.90
16200;DHT22;8207;52.494;4.654;2023-05-07T01:58:01;14.80;99.90
16200;DHT22;8207;52.494;4.654;2023-05-07T02:00:28;14.80;99.90
16200;DHT22;8207;52.494;4.654;2023-05-07T02:02:55;14.80;99.90
16200;DHT22;8207;52.494;4.654;2023-05-07T02:05:22;14.80;99.90
16200;DHT22;8207;52.494;4.654;2023-05-07T02:07:49;14.80;99.90
16200;DHT22;8207;52.494;4.654;2023-05-07T02:10:16;14.80;99.90
16200;DHT22;8207;52.494;4.654;2023-05-07T02:12:43;14.90;99.90
16200;DHT22;8207;52.494;4.654;2023-05-07T02:15:11;14.80;99.90
16200;DHT22;8207;52.494;4.654;2023-05-07T02:17:58;14.80;99.90
16200;DHT22;8207;52.494;4.654;2023-05-07T02:20:25;14.80;99.90
16200;DHT22;8207;52.494;4.654;2023-05-07T02:22:52;14.80;99.90
16200;DHT22;8207;52.494;4.654;2023-05-07T02:25:19;14.80;99.90
16200;DHT22;8207;52.494;4.654;2023-05-07T02:27:46;14.80;99.90
16200;DHT22;8207;52.494;4.654;2023-05-07T02:30:15;14.80;99.90
16200;DHT22;8207;52.494;4.654;2023-05-07T02:32:42;14.80;99.90
16200;DHT22;8207;52.494;4.654;2023-05-07T02:35:09;14.80;99.90
16200;DHT22;8207;52.494;4.654;2023-05-07T02:37:36;14.80;99.90
16200;DHT22;8207;52.494;4.654;2023-05-07T02:40:03;14.80;99.90
16200;DHT22;8207;52.494;4.654;2023-05-07T02:42:30;14.80;99.90
16200;DHT22;8207;52.494;4.654;2023-05-07T02:44:57;14.80;99.90
16200;DHT22;8207;52.494;4.654;2023-05-07T02:47:25;14.80;99.90
16200;DHT22;8207;52.494;4.654;2023-05-07T02:49:54;14.80;99.90
16200;DHT22;8207;52.494;4.654;2023-05-07T02:52:21;14.80;99.90
16200;DHT22;8207;52.494;4.654;2023-05-07T02:54:47;14.70;99.90
16200;DHT22;8207;52.494;4.654;2023-05-07T02:57:15;14.80;99.90
16200;DHT22;8207;52.494;4.654;2023-05-07T02:59:42;14.80;99.90
16200;DHT22;8207;52.494;4.654;2023-05-07T03:02:09;14.70;99.90
16200;DHT22;8207;52.494;4.654;2023-05-07T03:04:38;14.70;99.90
16200;DHT22;8207;52.494;4.654;2023-05-07T03:07:05;14.70;99.90
16200;DHT22;8207;52.494;4.654;2023-05-07T03:09:32;14.70;99.90
16200;DHT22;8207;52.494;4.654;2023-05-07T03:11:59;14.70;99.90
16200;DHT22;8207;52.494;4.654;2023-05-07T03:14:27;14.70;99.90
16200;DHT22;8207;52.494;4.654;2023-05-07T03:16:54;14.70;99.90
16200;DHT22;8207;52.494;4.654;2023-05-07T03:19:21;14.70;99.90
16200;DHT22;8207;52.494;4.654;2023-05-07T03:21:49;14.70;99.90
16200;DHT22;8207;52.494;4.654;2023-05-07T03:24:16;14.70;99.90
16200;DHT22;8207;52.494;4.654;2023-05-07T03:26:43;14.70;99.90
16200;DHT22;8207;52.494;4.654;2023-05-07T03:29:10;14.70;99.90
16200;DHT22;8207;52.494;4.654;2023-05-07T03:31:37;14.70;99.90
16200;DHT22;8207;52.494;4.654;2023-05-07T03:34:04;14.60;99.90
16200;DHT22;8207;52.494;4.654;2023-05-07T03:36:31;14.60;99.90
16200;DHT22;8207;52.494;4.654;2023-05-07T03:38:59;14.60;99.90
16200;DHT22;8207;52.494;4.654;2023-05-07T03:41:26;14.60;99.90
16200;DHT22;8207;52.494;4.654;2023-05-07T03:43:55;14.60;99.90
16200;DHT22;8207;52.494;4.654;2023-05-07T03:46:22;14.60;99.90
16200;DHT22;8207;52.494;4.654;2023-05-07T03:48:51;14.60;99.90
16200;DHT22;8207;52.494;4.654;2023-05-07T03:51:18;14.60;99.90
16200;DHT22;8207;52.494;4.654;2023-05-07T03:53:45;14.60;99.90
16200;DHT22;8207;52.494;4.654;2023-05-07T03:56:13;14.60;99.90
16200;DHT22;8207;52.494;4.654;2023-05-07T03:58:40;14.60;99.90
16200;DHT22;8207;52.494;4.654;2023-05-07T04:01:07;14.50;99.90
16200;DHT22;8207;52.494;4.654;2023-05-07T04:03:34;14.50;99.90
16200;DHT22;8207;52.494;4.654;2023-05-07T04:06:01;14.50;99.90
16200;DHT22;8207;52.494;4.654;2023-05-07T04:08:27;14.50;99.90
16200;DHT22;8207;52.494;4.654;2023-05-07T04:10:55;14.50;99.90
16200;DHT22;8207;52.494;4.654;2023-05-07T04:13:23;14.50;99.90
16200;DHT22;8207;52.494;4.654;2023-05-07T04:15:50;14.50;99.90
16200;DHT22;8207;52.494;4.654;2023-05-07T04:18:17;14.50;99.90
16200;DHT22;8207;52.494;4.654;2023-05-07T04:20:45;14.50;99.90
16200;DHT22;8207;52.494;4.654;2023-05-07T04:23:12;14.50;99.90
16200;DHT22;8207;52.494;4.654;2023-05-07T04:25:39;14.50;99.90
16200;DHT22;8207;52.494;4.654;2023-05-07T04:28:06;14.50;99.90
16200;DHT22;8207;52.494;4.654;2023-05-07T04:30:34;14.50;99.90
16200;DHT22;8207;52.494;4.654;2023-05-07T04:33:01;14.40;99.90
16200;DHT22;8207;52.494;4.654;2023-05-07T04:35:28;14.50;99.90
16200;DHT22;8207;52.494;4.654;2023-05-07T04:37:55;14.50;99.90
16200;DHT22;8207;52.494;4.654;2023-05-07T04:40:22;14.50;99.90
16200;DHT22;8207;52.494;4.654;2023-05-07T04:42:48;14.50;99.90
16200;DHT22;8207;52.494;4.654;2023-05-07T04:45:15;14.50;99.90
16200;DHT22;8207;52.494;4.654;2023-05-07T04:47:44;14.50;99.90
16200;DHT22;8207;52.494;4.654;2023-05-07T04:50:10;14.50;99.90
16200;DHT22;8207;52.494;4.654;2023-05-07T04:52:37;14.50;99.90
16200;DHT22;8207;52.494;4.654;2023-05-07T04:55:05;14.50;99.90
16200;DHT22;8207;52.494;4.654;2023-05-07T04:57:32;14.50;99.90
16200;DHT22;8207;52.494;4.654;2023-05-07T04:59:58;14.60;99.90
16200;DHT22;8207;52.494;4.654;2023-05-07T05:02:25;14.60;99.90
16200;DHT22;8207;52.494;4.654;2023-05-07T05:04:53;14.70;99.90
16200;DHT22;8207;52.494;4.654;2023-05-07T05:07:20;14.70;99.90
16200;DHT22;8207;52.494;4.654;2023-05-07T05:09:47;14.70;99.90
16200;DHT22;8207;52.494;4.654;2023-05-07T05:12:14;14.80;99.90
16200;DHT22;8207;52.494;4.654;2023-05-07T05:14:41;14.80;99.90
16200;DHT22;8207;52.494;4.654;2023-05-07T05:17:08;14.80;99.90
16200;DHT22;8207;52.494;4.654;2023-05-07T05:19:35;14.90;99.90
16200;DHT22;8207;52.494;4.654;2023-05-07T05:22:03;14.90;99.90
16200;DHT22;8207;52.494;4.654;2023-05-07T05:24:30;14.90;99.90
16200;DHT22;8207;52.494;4.654;2023-05-07T05:26:57;15.00;99.90
16200;DHT22;8207;52.494;4.654;2023-05-07T05:29:25;15.00;99.90
16200;DHT22;8207;52.494;4.654;2023-05-07T05:31:52;15.10;99.90
16200;DHT22;8207;52.494;4.654;2023-05-07T05:34:19;15.10;99.90
16200;DHT22;8207;52.494;4.654;2023-05-07T05:36:47;15.10;99.90
16200;DHT22;8207;52.494;4.654;2023-05-07T05:39:15;15.20;99.90
16200;DHT22;8207;52.494;4.654;2023-05-07T05:41:42;15.20;99.90
16200;DHT22;8207;52.494;4.654;2023-05-07T05:44:09;15.20;99.90
16200;DHT22;8207;52.494;4.654;2023-05-07T05:46:36;15.20;99.90
16200;DHT22;8207;52.494;4.654;2023-05-07T05:49:03;15.30;99.90
16200;DHT22;8207;52.494;4.654;2023-05-07T05:51:29;15.30;99.90
16200;DHT22;8207;52.494;4.654;2023-05-07T05:53:56;15.30;99.90
16200;DHT22;8207;52.494;4.654;2023-05-07T05:56:25;15.40;99.90
16200;DHT22;8207;52.494;4.654;2023-05-07T05:58:52;15.40;99.90
16200;DHT22;8207;52.494;4.654;2023-05-07T06:01:19;15.50;99.90
16200;DHT22;8207;52.494;4.654;2023-05-07T06:03:45;15.50;99.90
16200;DHT22;8207;52.494;4.654;2023-05-07T06:06:12;15.60;99.90
16200;DHT22;8207;52.494;4.654;2023-05-07T06:08:40;15.60;99.90
16200;DHT22;8207;52.494;4.654;2023-05-07T06:11:07;15.60;99.90
16200;DHT22;8207;52.494;4.654;2023-05-07T06:13:35;15.70;99.90
16200;DHT22;8207;52.494;4.654;2023-05-07T06:16:02;15.70;99.90
16200;DHT22;8207;52.494;4.654;2023-05-07T06:18:29;15.80;99.90
16200;DHT22;8207;52.494;4.654;2023-05-07T06:20:56;15.90;99.90
16200;DHT22;8207;52.494;4.654;2023-05-07T06:23:23;16.00;99.90
16200;DHT22;8207;52.494;4.654;2023-05-07T06:25:50;16.10;99.90
16200;DHT22;8207;52.494;4.654;2023-05-07T06:28:17;16.20;99.90
16200;DHT22;8207;52.494;4.654;2023-05-07T06:30:45;16.30;99.90
16200;DHT22;8207;52.494;4.654;2023-05-07T06:33:14;16.40;99.90
16200;DHT22;8207;52.494;4.654;2023-05-07T06:35:41;16.40;99.90
16200;DHT22;8207;52.494;4.654;2023-05-07T06:38:08;16.50;99.90
16200;DHT22;8207;52.494;4.654;2023-05-07T06:40:34;16.50;99.90
16200;DHT22;8207;52.494;4.654;2023-05-07T06:43:01;16.60;99.90
16200;DHT22;8207;52.494;4.654;2023-05-07T06:45:28;16.60;99.90
16200;DHT22;8207;52.494;4.654;2023-05-07T06:47:57;16.70;99.90
16200;DHT22;8207;52.494;4.654;2023-05-07T06:50:23;16.80;99.90
16200;DHT22;8207;52.494;4.654;2023-05-07T06:52:50;16.80;99.90
16200;DHT22;8207;52.494;4.654;2023-05-07T06:55:17;16.90;99.90
16200;DHT22;8207;52.494;4.654;2023-05-07T06:57:44;17.10;99.90
16200;DHT22;8207;52.494;4.654;2023-05-07T07:00:12;17.10;99.90
16200;DHT22;8207;52.494;4.654;2023-05-07T07:02:39;17.10;99.90
16200;DHT22;8207;52.494;4.654;2023-05-07T07:05:08;17.30;99.90
16200;DHT22;8207;52.494;4.654;2023-05-07T07:07:35;17.50;99.90
16200;DHT22;8207;52.494;4.654;2023-05-07T07:10:03;17.60;99.90
16200;DHT22;8207;52.494;4.654;2023-05-07T07:12:30;17.50;99.90
16200;DHT22;8207;52.494;4.654;2023-05-07T07:14:57;17.50;99.90
16200;DHT22;8207;52.494;4.654;2023-05-07T07:17:24;17.70;99.90
16200;DHT22;8207;52.494;4.654;2023-05-07T07:19:51;18.10;99.90
16200;DHT22;8207;52.494;4.654;2023-05-07T07:22:20;18.60;99.90
16200;DHT22;8207;52.494;4.654;2023-05-07T07:24:47;18.90;99.90
16200;DHT22;8207;52.494;4.654;2023-05-07T07:27:13;19.30;99.90
16200;DHT22;8207;52.494;4.654;2023-05-07T07:29:40;19.30;99.90
16200;DHT22;8207;52.494;4.654;2023-05-07T07:32:07;19.50;99.90
16200;DHT22;8207;52.494;4.654;2023-05-07T07:34:34;19.60;99.90
16200;DHT22;8207;52.494;4.654;2023-05-07T07:37:01;19.90;99.90
16200;DHT22;8207;52.494;4.654;2023-05-07T07:39:33;20.20;99.90
16200;DHT22;8207;52.494;4.654;2023-05-07T07:42:00;20.50;99.90
16200;DHT22;8207;52.494;4.654;2023-05-07T07:44:27;20.70;99.90
16200;DHT22;8207;52.494;4.654;2023-05-07T07:46:54;20.80;99.90
16200;DHT22;8207;52.494;4.654;2023-05-07T07:49:20;20.90;99.90
16200;DHT22;8207;52.494;4.654;2023-05-07T07:51:47;20.90;99.90
16200;DHT22;8207;52.494;4.654;2023-05-07T07:54:14;20.90;99.90
16200;DHT22;8207;52.494;4.654;2023-05-07T07:56:43;20.60;99.90
16200;DHT22;8207;52.494;4.654;2023-05-07T07:59:10;20.40;99.90
16200;DHT22;8207;52.494;4.654;2023-05-07T08:01:37;20.40;99.90
16200;DHT22;8207;52.494;4.654;2023-05-07T08:04:04;20.50;99.90
16200;DHT22;8207;52.494;4.654;2023-05-07T08:06:31;20.70;99.90
16200;DHT22;8207;52.494;4.654;2023-05-07T08:08:57;20.80;99.90
16200;DHT22;8207;52.494;4.654;2023-05-07T08:11:24;21.00;99.90
16200;DHT22;8207;52.494;4.654;2023-05-07T08:13:53;21.00;99.90
16200;DHT22;8207;52.494;4.654;2023-05-07T08:16:20;20.90;99.90
16200;DHT22;8207;52.494;4.654;2023-05-07T08:18:47;20.80;99.90
16200;DHT22;8207;52.494;4.654;2023-05-07T08:21:14;20.70;99.90
16200;DHT22;8207;52.494;4.654;2023-05-07T08:23:41;20.80;99.90
16200;DHT22;8207;52.494;4.654;2023-05-07T08:26:08;21.10;99.90
16200;DHT22;8207;52.494;4.654;2023-05-07T08:28:35;21.10;99.90
16200;DHT22;8207;52.494;4.654;2023-05-07T08:31:04;21.40;99.90
16200;DHT22;8207;52.494;4.654;2023-05-07T08:33:30;21.60;99.90
16200;DHT22;8207;52.494;4.654;2023-05-07T08:35:57;21.60;99.90
16200;DHT22;8207;52.494;4.654;2023-05-07T08:38:24;21.80;99.90
16200;DHT22;8207;52.494;4.654;2023-05-07T08:40:51;21.80;99.90
16200;DHT22;8207;52.494;4.654;2023-05-07T08:43:19;22.00;99.90
16200;DHT22;8207;52.494;4.654;2023-05-07T08:45:49;22.50;99.90
16200;DHT22;8207;52.494;4.654;2023-05-07T08:48:25;22.90;99.90
16200;DHT22;8207;52.494;4.654;2023-05-07T08:51:00;23.10;99.90
16200;DHT22;8207;52.494;4.654;2023-05-07T08:53:29;23.00;99.90
16200;DHT22;8207;52.494;4.654;2023-05-07T08:55:56;23.10;99.90
16200;DHT22;8207;52.494;4.654;2023-05-07T08:58:24;23.10;99.90
16200;DHT22;8207;52.494;4.654;2023-05-07T09:00:51;22.80;99.90
16200;DHT22;8207;52.494;4.654;2023-05-07T09:03:20;22.50;99.90
16200;DHT22;8207;52.494;4.654;2023-05-07T09:05:47;22.70;99.90
16200;DHT22;8207;52.494;4.654;2023-05-07T09:08:15;22.60;99.90
16200;DHT22;8207;52.494;4.654;2023-05-07T09:10:42;22.80;99.90
16200;DHT22;8207;52.494;4.654;2023-05-07T09:13:09;23.10;99.90
16200;DHT22;8207;52.494;4.654;2023-05-07T09:15:38;23.30;99.90
16200;DHT22;8207;52.494;4.654;2023-05-07T09:18:05;23.40;99.90
16200;DHT22;8207;52.494;4.654;2023-05-07T09:20:33;23.70;99.90
16200;DHT22;8207;52.494;4.654;2023-05-07T09:23:02;24.00;99.90
16200;DHT22;8207;52.494;4.654;2023-05-07T09:25:30;24.20;99.90
16200;DHT22;8207;52.494;4.654;2023-05-07T09:27:58;23.90;99.90
16200;DHT22;8207;52.494;4.654;2023-05-07T09:30:28;23.70;99.90
16200;DHT22;8207;52.494;4.654;2023-05-07T09:32:55;23.60;99.90
16200;DHT22;8207;52.494;4.654;2023-05-07T09:35:23;23.50;99.90
16200;DHT22;8207;52.494;4.654;2023-05-07T09:37:55;23.40;99.90
16200;DHT22;8207;52.494;4.654;2023-05-07T09:40:23;23.20;99.90
16200;DHT22;8207;52.494;4.654;2023-05-07T09:42:50;23.30;99.90
16200;DHT22;8207;52.494;4.654;2023-05-07T09:45:21;23.30;99.90
16200;DHT22;8207;52.494;4.654;2023-05-07T09:47:49;23.50;99.90
16200;DHT22;8207;52.494;4.654;2023-05-07T09:50:22;23.70;99.90
16200;DHT22;8207;52.494;4.654;2023-05-07T09:52:49;23.70;99.90
16200;DHT22;8207;52.494;4.654;2023-05-07T09:55:18;23.70;99.90
16200;DHT22;8207;52.494;4.654;2023-05-07T09:57:45;23.70;99.90
16200;DHT22;8207;52.494;4.654;2023-05-07T10:00:13;23.60;99.90
16200;DHT22;8207;52.494;4.654;2023-05-07T10:02:42;23.80;99.90
16200;DHT22;8207;52.494;4.654;2023-05-07T10:05:14;23.90;99.90
16200;DHT22;8207;52.494;4.654;2023-05-07T10:07:41;23.80;99.90
16200;DHT22;8207;52.494;4.654;2023-05-07T10:10:08;23.60;99.90
16200;DHT22;8207;52.494;4.654;2023-05-07T10:12:37;23.30;99.90
16200;DHT22;8207;52.494;4.654;2023-05-07T10:15:07;23.30;99.90
16200;DHT22;8207;52.494;4.654;2023-05-07T10:17:35;23.00;99.90
16200;DHT22;8207;52.494;4.654;2023-05-07T10:20:02;23.00;99.90
16200;DHT22;8207;52.494;4.654;2023-05-07T10:22:32;22.80;99.90
16200;DHT22;8207;52.494;4.654;2023-05-07T10:25:02;22.90;99.90
16200;DHT22;8207;52.494;4.654;2023-05-07T10:27:31;22.70;99.90
16200;DHT22;8207;52.494;4.654;2023-05-07T10:30:07;22.80;99.90
16200;DHT22;8207;52.494;4.654;2023-05-07T10:32:40;22.90;99.90
16200;DHT22;8207;52.494;4.654;2023-05-07T10:35:12;23.00;99.90
16200;DHT22;8207;52.494;4.654;2023-05-07T10:37:40;23.10;99.90
16200;DHT22;8207;52.494;4.654;2023-05-07T10:40:10;23.20;99.90
16200;DHT22;8207;52.494;4.654;2023-05-07T10:42:37;23.20;99.90
16200;DHT22;8207;52.494;4.654;2023-05-07T10:45:14;23.30;99.90
16200;DHT22;8207;52.494;4.654;2023-05-07T10:48:07;23.50;99.90
16200;DHT22;8207;52.494;4.654;2023-05-07T10:50:35;23.70;99.90
16200;DHT22;8207;52.494;4.654;2023-05-07T10:53:23;23.60;99.90
16200;DHT22;8207;52.494;4.654;2023-05-07T10:59:30;23.60;99.90
16200;DHT22;8207;52.494;4.654;2023-05-07T11:02:00;23.50;99.90
16200;DHT22;8207;52.494;4.654;2023-05-07T11:04:28;23.40;99.90
16200;DHT22;8207;52.494;4.654;2023-05-07T11:07:21;23.10;99.90
16200;DHT22;8207;52.494;4.654;2023-05-07T11:10:01;23.20;99.90
16200;DHT22;8207;52.494;4.654;2023-05-07T11:12:54;23.20;99.90
16200;DHT22;8207;52.494;4.654;2023-05-07T11:15:38;23.00;99.90
16200;DHT22;8207;52.494;4.654;2023-05-07T11:18:07;23.10;99.90
16200;DHT22;8207;52.494;4.654;2023-05-07T11:20:54;23.00;99.90
16200;DHT22;8207;52.494;4.654;2023-05-07T11:26:45;22.80;99.90
16200;DHT22;8207;52.494;4.654;2023-05-07T11:29:14;22.70;99.90
16200;DHT22;8207;52.494;4.654;2023-05-07T11:31:42;22.50;99.90
16200;DHT22;8207;52.494;4.654;2023-05-07T11:34:11;22.50;99.90
16200;DHT22;8207;52.494;4.654;2023-05-07T11:36:41;22.40;99.90
16200;DHT22;8207;52.494;4.654;2023-05-07T11:39:29;22.30;99.90
16200;DHT22;8207;52.494;4.654;2023-05-07T11:41:57;22.10;99.90
16200;DHT22;8207;52.494;4.654;2023-05-07T11:44:24;21.90;99.90
16200;DHT22;8207;52.494;4.654;2023-05-07T11:46:51;21.70;99.90
16200;DHT22;8207;52.494;4.654;2023-05-07T11:49:19;21.60;99.90
16200;DHT22;8207;52.494;4.654;2023-05-07T11:51:46;21.40;99.90
16200;DHT22;8207;52.494;4.654;2023-05-07T11:54:16;21.30;99.90
16200;DHT22;8207;52.494;4.654;2023-05-07T11:56:44;21.20;99.90
16200;DHT22;8207;52.494;4.654;2023-05-07T11:59:16;21.20;99.90
16200;DHT22;8207;52.494;4.654;2023-05-07T12:01:45;21.00;99.90
16200;DHT22;8207;52.494;4.654;2023-05-07T12:04:12;20.90;99.90
16200;DHT22;8207;52.494;4.654;2023-05-07T12:06:41;20.70;99.90
16200;DHT22;8207;52.494;4.654;2023-05-07T12:09:08;20.60;99.90
16200;DHT22;8207;52.494;4.654;2023-05-07T12:11:37;20.50;99.90
16200;DHT22;8207;52.494;4.654;2023-05-07T12:14:05;20.40;99.90
16200;DHT22;8207;52.494;4.654;2023-05-07T12:16:32;20.40;99.90
16200;DHT22;8207;52.494;4.654;2023-05-07T12:18:59;20.30;99.90
16200;DHT22;8207;52.494;4.654;2023-05-07T12:21:26;20.30;99.90
16200;DHT22;8207;52.494;4.654;2023-05-07T12:23:55;20.20;99.90
16200;DHT22;8207;52.494;4.654;2023-05-07T12:26:23;20.20;99.90
16200;DHT22;8207;52.494;4.654;2023-05-07T12:28:50;20.10;99.90
16200;DHT22;8207;52.494;4.654;2023-05-07T12:31:17;20.10;99.90
16200;DHT22;8207;52.494;4.654;2023-05-07T12:33:45;20.10;99.90
16200;DHT22;8207;52.494;4.654;2023-05-07T12:36:13;20.00;99.90
16200;DHT22;8207;52.494;4.654;2023-05-07T12:38:40;20.00;99.90
16200;DHT22;8207;52.494;4.654;2023-05-07T12:41:10;19.90;99.90
16200;DHT22;8207;52.494;4.654;2023-05-07T12:43:38;19.80;99.90
16200;DHT22;8207;52.494;4.654;2023-05-07T12:46:06;19.70;99.90
16200;DHT22;8207;52.494;4.654;2023-05-07T12:48:36;19.60;99.90
16200;DHT22;8207;52.494;4.654;2023-05-07T12:51:03;19.60;99.90
16200;DHT22;8207;52.494;4.654;2023-05-07T12:53:31;19.50;99.90
16200;DHT22;8207;52.494;4.654;2023-05-07T12:55:59;19.50;99.90
16200;DHT22;8207;52.494;4.654;2023-05-07T12:58:30;19.50;99.90
16200;DHT22;8207;52.494;4.654;2023-05-07T13:01:01;19.40;99.90
16200;DHT22;8207;52.494;4.654;2023-05-07T13:03:29;19.40;99.90
16200;DHT22;8207;52.494;4.654;2023-05-07T13:05:59;19.30;99.90
16200;DHT22;8207;52.494;4.654;2023-05-07T13:08:27;19.20;99.90
16200;DHT22;8207;52.494;4.654;2023-05-07T13:10:54;19.20;99.90
16200;DHT22;8207;52.494;4.654;2023-05-07T13:13:21;19.30;99.90
16200;DHT22;8207;52.494;4.654;2023-05-07T13:15:50;19.30;99.90
16200;DHT22;8207;52.494;4.654;2023-05-07T13:18:17;19.30;99.90
16200;DHT22;8207;52.494;4.654;2023-05-07T13:20:44;19.30;99.90
16200;DHT22;8207;52.494;4.654;2023-05-07T13:23:10;19.20;99.90
16200;DHT22;8207;52.494;4.654;2023-05-07T13:25:37;19.10;99.90
16200;DHT22;8207;52.494;4.654;2023-05-07T13:28:04;19.10;99.90
16200;DHT22;8207;52.494;4.654;2023-05-07T13:30:31;19.00;99.90
16200;DHT22;8207;52.494;4.654;2023-05-07T13:32:59;18.90;99.90
16200;DHT22;8207;52.494;4.654;2023-05-07T13:35:26;18.80;99.90
16200;DHT22;8207;52.494;4.654;2023-05-07T13:37:53;18.80;99.90
16200;DHT22;8207;52.494;4.654;2023-05-07T13:40:21;18.80;99.90
16200;DHT22;8207;52.494;4.654;2023-05-07T13:42:48;18.80;99.90
16200;DHT22;8207;52.494;4.654;2023-05-07T13:45:16;18.70;99.90
16200;DHT22;8207;52.494;4.654;2023-05-07T13:47:43;18.70;99.90
16200;DHT22;8207;52.494;4.654;2023-05-07T13:50:12;18.60;99.90
16200;DHT22;8207;52.494;4.654;2023-05-07T13:52:41;18.60;99.90
16200;DHT22;8207;52.494;4.654;2023-05-07T13:55:11;18.50;99.90
16200;DHT22;8207;52.494;4.654;2023-05-07T13:57:38;18.50;99.90
16200;DHT22;8207;52.494;4.654;2023-05-07T14:00:06;18.50;99.90
16200;DHT22;8207;52.494;4.654;2023-05-07T14:02:33;18.50;99.90
16200;DHT22;8207;52.494;4.654;2023-05-07T14:05:00;18.60;99.90
16200;DHT22;8207;52.494;4.654;2023-05-07T14:07:28;18.40;99.90
16200;DHT22;8207;52.494;4.654;2023-05-07T14:09:57;18.50;99.90
16200;DHT22;8207;52.494;4.654;2023-05-07T14:12:24;18.50;99.90
16200;DHT22;8207;52.494;4.654;2023-05-07T14:14:50;18.60;99.90
16200;DHT22;8207;52.494;4.654;2023-05-07T14:17:18;18.70;99.90
16200;DHT22;8207;52.494;4.654;2023-05-07T14:19:45;18.70;99.90
16200;DHT22;8207;52.494;4.654;2023-05-07T14:22:13;18.80;99.90
16200;DHT22;8207;52.494;4.654;2023-05-07T14:24:42;18.80;99.90
16200;DHT22;8207;52.494;4.654;2023-05-07T14:27:08;18.90;99.90
16200;DHT22;8207;52.494;4.654;2023-05-07T14:29:35;19.00;99.90
16200;DHT22;8207;52.494;4.654;2023-05-07T14:32:02;19.20;99.90
16200;DHT22;8207;52.494;4.654;2023-05-07T14:34:29;19.40;99.90
16200;DHT22;8207;52.494;4.654;2023-05-07T14:36:56;19.60;99.90
16200;DHT22;8207;52.494;4.654;2023-05-07T14:39:23;19.70;99.90
16200;DHT22;8207;52.494;4.654;2023-05-07T14:41:52;19.70;99.90
16200;DHT22;8207;52.494;4.654;2023-05-07T14:44:20;19.50;99.90
16200;DHT22;8207;52.494;4.654;2023-05-07T14:46:47;19.50;99.90
16200;DHT22;8207;52.494;4.654;2023-05-07T14:49:14;19.60;99.90
16200;DHT22;8207;52.494;4.654;2023-05-07T14:51:43;19.60;99.90
16200;DHT22;8207;52.494;4.654;2023-05-07T14:54:10;19.50;99.90
16200;DHT22;8207;52.494;4.654;2023-05-07T14:56:38;19.40;99.90
16200;DHT22;8207;52.494;4.654;2023-05-07T14:59:06;19.30;99.90
16200;DHT22;8207;52.494;4.654;2023-05-07T15:01:34;19.20;99.90
16200;DHT22;8207;52.494;4.654;2023-05-07T15:04:03;19.20;99.90
16200;DHT22;8207;52.494;4.654;2023-05-07T15:06:30;19.20;99.90
16200;DHT22;8207;52.494;4.654;2023-05-07T15:08:57;19.20;99.90
16200;DHT22;8207;52.494;4.654;2023-05-07T15:11:24;19.20;99.90
16200;DHT22;8207;52.494;4.654;2023-05-07T15:13:51;19.20;99.90
16200;DHT22;8207;52.494;4.654;2023-05-07T15:16:19;19.30;99.90
16200;DHT22;8207;52.494;4.654;2023-05-07T15:18:46;19.30;99.90
16200;DHT22;8207;52.494;4.654;2023-05-07T15:21:13;19.20;99.90
16200;DHT22;8207;52.494;4.654;2023-05-07T15:23:40;19.10;99.90
16200;DHT22;8207;52.494;4.654;2023-05-07T15:26:08;19.20;99.90
16200;DHT22;8207;52.494;4.654;2023-05-07T15:28:35;19.10;99.90
16200;DHT22;8207;52.494;4.654;2023-05-07T15:31:02;19.10;99.90
16200;DHT22;8207;52.494;4.654;2023-05-07T15:33:30;19.10;99.90
16200;DHT22;8207;52.494;4.654;2023-05-07T15:35:57;19.00;99.90
16200;DHT22;8207;52.494;4.654;2023-05-07T15:38:25;19.10;99.90
16200;DHT22;8207;52.494;4.654;2023-05-07T15:40:52;19.10;99.90
16200;DHT22;8207;52.494;4.654;2023-05-07T15:43:20;19.00;99.90
16200;DHT22;8207;52.494;4.654;2023-05-07T15:45:47;18.90;99.90
16200;DHT22;8207;52.494;4.654;2023-05-07T15:48:14;18.80;99.90
16200;DHT22;8207;52.494;4.654;2023-05-07T15:50:42;18.90;99.90
16200;DHT22;8207;52.494;4.654;2023-05-07T15:53:09;18.90;99.90
16200;DHT22;8207;52.494;4.654;2023-05-07T15:55:38;18.90;99.90
16200;DHT22;8207;52.494;4.654;2023-05-07T15:58:05;18.90;99.90